Time;durP1;ratioP1;P1;durP2;ratioP2;P2;SDS_P1;SDS_P2;PMS_P1;PMS_P2;Temp;Humidity;BMP_temperature;BMP_pressure;BME280_temperature;BME280_humidity;BME280_pressure;Samples;Min_cycle;Max_cycle;Signal;HPM_P1;HPM_P2
2023/06/04 00:00:18;;;;;;;6.20;1.90;;;;;;;19.76;39.34;100669.03;6181447;23;20232;-75
2023/06/04 00:02:46;;;;;;;5.30;1.80;;;;;;;19.79;38.91;100667.81;6181014;23;20185;-74
2023/06/04 00:05:14;;;;;;;5.00;1.70;;;;;;;19.71;39.19;100660.72;6178879;23;20219;-76
2023/06/04 00:07:42;;;;;;;2.53;1.30;;;;;;;19.64;39.41;100667.97;6175071;23;20220;-77
2023/06/04 00:10:11;;;;;;;5.90;1.90;;;;;;;19.59;39.16;100666.91;6173973;23;20189;-74
2023/06/04 00:12:39;;;;;;;7.43;1.50;;;;;;;19.55;39.07;100671.84;6173775;23;20784;-75
2023/06/04 00:15:08;;;;;;;4.50;1.67;;;;;;;19.55;39.14;100666.47;6173752;23;20247;-75
2023/06/04 00:17:36;;;;;;;5.23;1.47;;;;;;;19.58;39.35;100665.25;6174297;23;20212;-73
2023/06/04 00:20:05;;;;;;;5.30;1.97;;;;;;;19.54;39.39;100676.41;6175480;23;20208;-73
2023/06/04 00:22:33;;;;;;;5.30;1.60;;;;;;;19.53;39.25;100665.84;6173957;23;20762;-74
2023/06/04 00:25:00;;;;;;;4.63;1.60;;;;;;;19.52;39.17;100658.84;6174624;23;20240;-75
2023/06/04 00:27:30;;;;;;;4.10;1.70;;;;;;;19.50;39.07;100666.28;6174838;23;20209;-76
2023/06/04 00:29:57;;;;;;;5.13;1.87;;;;;;;19.42;39.54;100669.09;6175205;23;20242;-75
2023/06/04 00:32:25;;;;;;;6.47;1.77;;;;;;;19.38;39.23;100662.47;6174414;23;20509;-75
2023/06/04 00:34:53;;;;;;;3.43;1.40;;;;;;;19.34;39.41;100661.22;6173585;23;20464;-75
2023/06/04 00:37:22;;;;;;;6.80;1.57;;;;;;;19.28;39.53;100668.19;6175125;23;20184;-75
2023/06/04 00:39:50;;;;;;;5.23;1.57;;;;;;;19.26;39.66;100664.88;6175139;23;20649;-75
2023/06/04 00:42:18;;;;;;;4.77;1.70;;;;;;;19.26;39.33;100664.06;6177123;23;20185;-74
2023/06/04 00:44:47;;;;;;;6.83;1.70;;;;;;;19.27;39.26;100668.41;6175378;23;20200;-74
2023/06/04 00:47:16;;;;;;;4.37;2.10;;;;;;;19.27;39.45;100657.63;6176984;23;20255;-75
2023/06/04 00:49:44;;;;;;;3.73;1.50;;;;;;;19.25;39.18;100670.47;6175883;23;20255;-74
2023/06/04 00:52:15;;;;;;;6.20;1.50;;;;;;;19.22;39.38;100665.50;6179440;23;20185;-74
2023/06/04 00:54:43;;;;;;;2.23;1.20;;;;;;;19.24;39.16;100669.66;6180640;23;20219;-74
2023/06/04 00:57:11;;;;;;;4.23;1.70;;;;;;;19.25;39.21;100670.47;6175760;23;20195;-75
2023/06/04 00:59:41;;;;;;;3.63;1.43;;;;;;;19.21;39.22;100672.72;6175391;23;20601;-74
2023/06/04 01:02:14;;;;;;;2.50;1.17;;;;;;;19.17;39.23;100669.59;6176125;23;20246;-74
2023/06/04 01:04:47;;;;;;;3.37;1.67;;;;;;;19.13;39.33;100679.09;6176051;23;20192;-75
2023/06/04 01:07:17;;;;;;;3.40;1.30;;;;;;;19.11;39.36;100681.16;6176019;23;20777;-74
2023/06/04 01:09:45;;;;;;;4.70;1.30;;;;;;;19.07;39.30;100679.91;6176326;23;20245;-75
2023/06/04 01:12:13;;;;;;;3.33;1.13;;;;;;;19.07;38.94;100682.59;6174594;23;20185;-75
2023/06/04 01:14:42;;;;;;;5.60;1.20;;;;;;;19.01;39.27;100682.53;6174827;23;20259;-74
2023/06/04 01:17:16;;;;;;;4.50;1.40;;;;;;;18.96;39.27;100680.44;6174867;23;20243;-74
2023/06/04 01:20:11;;;;;;;3.23;1.13;;;;;;;18.95;39.15;100686.00;6175376;23;20179;-74
2023/06/04 01:22:44;;;;;;;4.30;1.37;;;;;;;18.88;39.47;100680.59;6174874;23;20265;-74
2023/06/04 01:25:19;;;;;;;6.37;1.40;;;;;;;18.82;39.43;100681.41;6177238;23;20193;-75
2023/06/04 01:27:52;;;;;;;3.53;1.30;;;;;;;18.80;39.41;100683.44;6177038;23;20772;-74
2023/06/04 01:30:23;;;;;;;4.10;1.50;;;;;;;18.81;39.49;100690.50;6174431;23;20175;-74
2023/06/04 01:32:53;;;;;;;4.90;1.63;;;;;;;18.79;39.55;100689.84;6174243;23;20184;-73
2023/06/04 01:35:21;;;;;;;3.10;1.40;;;;;;;18.81;39.35;100684.28;6174087;23;20892;-75
2023/06/04 01:37:49;;;;;;;3.80;1.43;;;;;;;18.79;39.56;100682.63;6172424;23;20187;-72
2023/06/04 01:40:17;;;;;;;3.00;1.30;;;;;;;18.79;39.27;100682.63;6175800;23;20181;-75
2023/06/04 01:42:45;;;;;;;4.10;1.30;;;;;;;18.82;39.45;100683.25;6175681;23;20196;-73
2023/06/04 01:45:13;;;;;;;5.90;1.47;;;;;;;18.78;39.02;100691.69;6176907;23;20180;-74
2023/06/04 01:47:41;;;;;;;3.37;1.10;;;;;;;18.72;39.12;100684.44;6177760;23;20200;-74
2023/06/04 01:50:11;;;;;;;4.30;1.50;;;;;;;18.70;39.42;100688.34;6177175;23;20219;-75
2023/06/04 01:52:39;;;;;;;5.20;1.60;;;;;;;18.63;39.62;100690.97;6179451;23;20185;-75
2023/06/04 01:55:11;;;;;;;5.03;1.57;;;;;;;18.66;39.19;100692.41;6182346;23;20181;-75
2023/06/04 01:57:40;;;;;;;3.77;1.10;;;;;;;18.65;39.27;100693.44;6185882;23;20621;-73
2023/06/04 02:00:10;;;;;;;2.60;1.10;;;;;;;18.58;39.30;100690.72;6186030;23;20205;-73
2023/06/04 02:02:38;;;;;;;3.30;1.53;;;;;;;18.55;39.01;100691.09;6184188;23;20192;-74
2023/06/04 02:05:08;;;;;;;5.17;1.37;;;;;;;18.51;39.42;100699.72;6185231;23;20188;-74
2023/06/04 02:07:38;;;;;;;5.83;1.30;;;;;;;18.51;39.65;100688.97;6197916;23;20181;-74
2023/06/04 02:10:06;;;;;;;5.17;1.40;;;;;;;18.51;39.61;100689.81;6178784;23;20192;-74
2023/06/04 02:12:36;;;;;;;3.33;1.40;;;;;;;18.47;39.12;100688.53;6176147;23;20184;-74
2023/06/04 02:15:05;;;;;;;9.90;1.70;;;;;;;18.45;39.28;100689.75;6174785;23;20185;-76
2023/06/04 02:17:42;;;;;;;5.47;1.47;;;;;;;18.39;39.37;100696.72;6175542;23;20189;-75
2023/06/04 02:20:11;;;;;;;5.00;1.50;;;;;;;18.37;39.34;100694.25;6175197;23;20187;-74
2023/06/04 02:22:40;;;;;;;4.80;1.40;;;;;;;18.39;39.15;100692.19;6173135;23;20244;-75
2023/06/04 02:25:09;;;;;;;2.63;1.20;;;;;;;18.45;39.56;100695.13;6174398;23;20205;-73
2023/06/04 02:27:37;;;;;;;6.90;1.10;;;;;;;18.45;39.40;100693.28;6173191;23;20259;-73
2023/06/04 02:30:06;;;;;;;2.83;1.57;;;;;;;18.41;39.43;100698.19;6174275;23;20212;-74
2023/06/04 02:32:35;;;;;;;4.40;1.30;;;;;;;18.37;39.41;100690.72;6179387;23;20212;-73
2023/06/04 02:35:04;;;;;;;6.13;1.40;;;;;;;18.35;39.31;100695.47;6186352;23;20219;-75
2023/06/04 02:37:32;;;;;;;5.30;1.40;;;;;;;18.35;39.50;100690.91;6176201;23;20304;-75
2023/06/04 02:40:01;;;;;;;5.37;1.30;;;;;;;18.37;39.45;100688.03;6171646;23;20515;-74
2023/06/04 02:42:29;;;;;;;3.60;1.27;;;;;;;18.40;38.99;100696.53;6173061;23;20728;-74
2023/06/04 02:44:56;;;;;;;2.57;1.23;;;;;;;18.38;39.02;100700.44;6175960;23;20185;-74
2023/06/04 02:47:24;;;;;;;4.20;1.27;;;;;;;18.37;39.23;100690.72;6172810;23;20219;-76
2023/06/04 02:49:52;;;;;;;4.40;1.17;;;;;;;18.32;39.09;100693.97;6172970;23;20257;-73
2023/06/04 02:52:22;;;;;;;5.10;1.40;;;;;;;18.29;39.45;100706.97;6172340;23;20232;-74
2023/06/04 02:54:50;;;;;;;2.57;1.17;;;;;;;18.28;39.04;100695.41;6172909;23;20544;-74
2023/06/04 02:57:19;;;;;;;4.80;1.40;;;;;;;18.23;39.52;100703.19;6173514;23;20188;-74
2023/06/04 02:59:47;;;;;;;6.13;1.50;;;;;;;18.19;39.68;100704.59;6172994;23;20216;-74
2023/06/04 03:02:15;;;;;;;4.40;1.67;;;;;;;18.15;39.42;100706.00;6173313;23;20185;-74
2023/06/04 03:04:44;;;;;;;4.63;1.40;;;;;;;18.15;39.31;100711.38;6173696;23;20263;-75
2023/06/04 03:07:12;;;;;;;6.70;1.97;;;;;;;18.09;39.32;100706.78;6172799;23;20212;-74
2023/06/04 03:09:40;;;;;;;5.27;1.90;;;;;;;18.05;39.70;100708.16;6175391;23;20190;-75
2023/06/04 03:12:08;;;;;;;3.43;1.77;;;;;;;18.02;39.76;100711.25;6174614;23;20181;-75
2023/06/04 03:14:37;;;;;;;3.37;1.40;;;;;;;18.05;39.52;100713.53;6174544;23;20181;-74
2023/06/04 03:17:10;;;;;;;3.60;1.90;;;;;;;18.02;39.60;100713.94;6172244;23;20243;-74
2023/06/04 03:19:39;;;;;;;3.63;1.67;;;;;;;17.97;39.93;100713.66;6173751;23;20187;-73
2023/06/04 03:22:08;;;;;;;4.00;1.70;;;;;;;17.88;39.85;100704.06;6175414;23;20217;-73
2023/06/04 03:24:38;;;;;;;4.10;1.73;;;;;;;17.80;39.98;100712.22;6176685;23;20240;-74
2023/06/04 03:27:07;;;;;;;5.57;1.77;;;;;;;17.78;40.19;100712.41;6174179;23;20247;-73
2023/06/04 03:29:35;;;;;;;4.30;1.80;;;;;;;17.78;40.00;100714.25;6174611;23;20231;-74
2023/06/04 03:32:05;;;;;;;4.83;1.57;;;;;;;17.80;40.27;100717.59;6175569;23;20276;-75
2023/06/04 03:34:33;;;;;;;3.30;1.93;;;;;;;17.82;40.24;100718.25;6179110;23;20219;-75
2023/06/04 03:37:02;;;;;;;4.77;1.97;;;;;;;17.87;39.98;100713.13;6180653;23;20196;-74
2023/06/04 03:39:30;;;;;;;6.73;1.40;;;;;;;17.87;39.93;100716.63;6182064;23;20185;-74
2023/06/04 03:41:58;;;;;;;4.03;1.53;;;;;;;17.88;40.17;100709.44;6183138;23;20219;-73
2023/06/04 03:44:26;;;;;;;4.17;1.50;;;;;;;17.91;40.08;100704.53;6184606;23;20272;-74
2023/06/04 03:46:54;;;;;;;7.67;1.47;;;;;;;17.90;40.10;100710.06;6181976;23;20216;-75
2023/06/04 03:49:23;;;;;;;4.03;1.80;;;;;;;17.90;39.87;100708.22;6177654;23;20230;-76
2023/06/04 03:51:51;;;;;;;5.20;1.87;;;;;;;17.94;39.90;100714.84;6178425;23;20853;-73
2023/06/04 03:54:19;;;;;;;5.30;1.90;;;;;;;17.94;40.02;100711.38;6178510;23;20187;-75
2023/06/04 03:56:47;;;;;;;4.93;1.53;;;;;;;17.91;40.17;100709.06;6175472;23;20359;-74
2023/06/04 03:59:14;;;;;;;4.90;1.60;;;;;;;17.87;40.30;100705.91;6175923;23;20188;-75
2023/06/04 04:01:43;;;;;;;6.83;2.37;;;;;;;17.84;40.08;100719.72;6174436;23;20303;-74
2023/06/04 04:04:11;;;;;;;4.33;1.83;;;;;;;17.88;40.30;100714.78;6174826;23;20660;-75
2023/06/04 04:06:41;;;;;;;3.40;1.70;;;;;;;17.86;40.04;100712.28;6173419;23;20657;-74
2023/06/04 04:09:09;;;;;;;5.87;2.00;;;;;;;17.78;40.17;100709.72;6174907;23;20184;-73
2023/06/04 04:11:36;;;;;;;5.93;1.67;;;;;;;17.76;40.53;100719.00;6175333;23;20185;-74
2023/06/04 04:14:04;;;;;;;8.07;1.90;;;;;;;17.74;40.43;100718.34;6175299;23;20627;-75
2023/06/04 04:16:32;;;;;;;3.73;1.40;;;;;;;17.73;40.51;100719.38;6174548;23;20645;-73
2023/06/04 04:19:00;;;;;;;2.97;1.40;;;;;;;17.76;40.47;100721.69;6175679;23;20187;-74
2023/06/04 04:21:28;;;;;;;3.73;1.30;;;;;;;17.73;40.84;100722.06;6175813;23;20204;-76
2023/06/04 04:23:57;;;;;;;6.10;1.60;;;;;;;17.75;40.55;100725.38;6180194;23;20212;-75
2023/06/04 04:26:27;;;;;;;4.53;1.40;;;;;;;17.77;40.78;100731.38;6174519;23;20188;-75
2023/06/04 04:28:57;;;;;;;5.83;1.70;;;;;;;17.78;40.67;100730.34;6174989;23;20243;-76
2023/06/04 04:31:26;;;;;;;5.93;1.47;;;;;;;17.79;40.63;100735.53;6175128;23;20195;-74
2023/06/04 04:33:56;;;;;;;2.60;1.27;;;;;;;17.83;40.94;100733.31;6174174;23;20208;-74
2023/06/04 04:36:23;;;;;;;4.90;1.70;;;;;;;17.91;40.62;100725.16;6173667;23;20239;-75
2023/06/04 04:38:54;;;;;;;5.37;1.60;;;;;;;17.95;40.72;100721.06;6173576;23;20188;-75
2023/06/04 04:41:23;;;;;;;2.80;1.43;;;;;;;17.96;40.71;100730.78;6173914;23;20165;-74
2023/06/04 04:43:53;;;;;;;3.87;1.87;;;;;;;17.97;40.73;100725.22;6173524;23;20185;-74
2023/06/04 04:46:21;;;;;;;4.27;1.47;;;;;;;17.98;40.63;100728.75;6174777;23;20191;-74
2023/06/04 04:48:49;;;;;;;3.63;1.90;;;;;;;18.02;40.78;100730.88;6174954;23;20295;-73
2023/06/04 04:51:17;;;;;;;3.90;1.70;;;;;;;18.04;40.62;100727.97;6174543;23;20208;-74
2023/06/04 04:53:45;;;;;;;4.97;2.17;;;;;;;18.09;40.51;100728.25;6175178;23;20375;-74
2023/06/04 04:56:13;;;;;;;3.43;1.70;;;;;;;18.13;40.68;100734.88;6177377;23;20287;-75
2023/06/04 04:58:42;;;;;;;3.57;1.53;;;;;;;18.15;40.38;100738.22;6181415;23;20189;-75
2023/06/04 05:01:10;;;;;;;2.57;1.30;;;;;;;18.17;40.79;100741.53;6175760;23;20212;-72
2023/06/04 05:03:38;;;;;;;4.40;1.83;;;;;;;18.18;40.77;100742.38;6176806;23;20259;-74
2023/06/04 05:06:06;;;;;;;5.53;1.50;;;;;;;18.17;40.85;100738.03;6176524;23;20254;-73
2023/06/04 05:08:34;;;;;;;4.17;1.63;;;;;;;18.16;40.57;100741.72;6176391;23;20294;-76
2023/06/04 05:11:01;;;;;;;4.63;1.20;;;;;;;18.16;40.63;100737.19;6177772;23;20259;-74
2023/06/04 05:13:29;;;;;;;5.60;1.90;;;;;;;18.12;40.92;100746.63;6176857;23;20882;-73
2023/06/04 05:15:59;;;;;;;4.63;1.53;;;;;;;18.13;40.83;100745.59;6176658;23;20213;-73
2023/06/04 05:18:29;;;;;;;3.17;1.50;;;;;;;18.16;41.09;100747.91;6176085;23;20199;-73
2023/06/04 05:20:57;;;;;;;6.00;1.70;;;;;;;18.22;40.87;100754.38;6174986;23;20574;-75
2023/06/04 05:23:25;;;;;;;7.30;1.80;;;;;;;18.22;40.50;100759.75;6176065;23;20669;-74
2023/06/04 05:25:53;;;;;;;4.63;2.17;;;;;;;18.19;40.54;100750.22;6175428;23;20305;-74
2023/06/04 05:28:24;;;;;;;4.27;1.50;;;;;;;18.22;40.78;100754.38;6174762;23;20209;-74
2023/06/04 05:30:53;;;;;;;7.23;1.90;;;;;;;18.25;40.67;100754.84;6173239;23;20501;-73
2023/06/04 05:33:22;;;;;;;3.40;1.70;;;;;;;18.29;40.52;100756.13;6174669;23;20806;-74
2023/06/04 05:35:51;;;;;;;3.80;1.60;;;;;;;18.38;40.29;100754.16;6174435;23;20216;-74
2023/06/04 05:38:19;;;;;;;6.17;1.80;;;;;;;18.40;40.01;100758.28;6176068;23;20905;-75
2023/06/04 05:40:47;;;;;;;7.60;1.70;;;;;;;18.47;40.16;100757.53;6175508;23;20205;-75
2023/06/04 05:43:15;;;;;;;3.93;1.40;;;;;;;18.53;40.07;100762.13;6175506;23;20251;-74
2023/06/04 05:45:46;;;;;;;3.10;1.40;;;;;;;18.55;40.13;100768.13;6174605;23;20181;-74
2023/06/04 05:48:14;;;;;;;5.40;1.93;;;;;;;18.54;40.40;100764.63;6175754;23;20201;-75
2023/06/04 05:50:43;;;;;;;2.60;1.37;;;;;;;18.57;40.12;100771.47;6175788;23;20539;-75
2023/06/04 05:53:11;;;;;;;6.10;1.60;;;;;;;18.59;39.87;100766.75;6176705;23;20220;-74
2023/06/04 05:55:39;;;;;;;3.00;1.47;;;;;;;18.62;40.09;100774.44;6176060;23;20651;-75
2023/06/04 05:58:07;;;;;;;3.73;1.67;;;;;;;18.66;40.11;100776.50;6175615;23;20195;-75
2023/06/04 06:00:35;;;;;;;5.30;1.60;;;;;;;18.69;40.47;100778.81;6177634;23;20184;-76
2023/06/04 06:03:06;;;;;;;3.47;1.70;;;;;;;18.73;40.26;100779.28;6175828;23;20185;-75
2023/06/04 06:05:34;;;;;;;4.87;1.83;;;;;;;18.74;40.25;100781.75;6177058;23;20995;-75
2023/06/04 06:08:04;;;;;;;6.70;1.80;;;;;;;18.79;39.86;100786.56;6175703;23;20205;-75
2023/06/04 06:10:32;;;;;;;7.37;1.60;;;;;;;18.78;39.97;100776.84;6176453;23;20633;-75
2023/06/04 06:13:01;;;;;;;3.80;1.60;;;;;;;18.79;40.15;100789.25;6176340;23;20209;-75
2023/06/04 06:15:30;;;;;;;5.93;1.53;;;;;;;18.76;40.07;100785.09;6175926;23;20846;-74
2023/06/04 06:17:57;;;;;;;3.00;1.30;;;;;;;18.71;40.11;100784.00;6175338;23;20192;-74
2023/06/04 06:20:25;;;;;;;7.77;1.60;;;;;;;18.71;39.95;100784.84;6176475;23;20241;-74
2023/06/04 06:22:53;;;;;;;3.90;1.47;;;;;;;18.74;39.79;100791.66;6175941;23;20208;-74
2023/06/04 06:25:22;;;;;;;7.13;1.90;;;;;;;18.80;39.88;100790.91;6178688;23;20200;-75
2023/06/04 06:27:51;;;;;;;2.93;1.53;;;;;;;18.82;39.81;100796.94;6177854;23;20205;-75
2023/06/04 06:30:19;;;;;;;3.33;1.70;;;;;;;18.80;39.57;100790.91;6176065;23;20181;-74
2023/06/04 06:32:48;;;;;;;3.73;1.60;;;;;;;18.78;40.19;100799.16;6176023;23;20276;-74
2023/06/04 06:35:16;;;;;;;3.13;1.53;;;;;;;18.77;40.17;100802.03;6174701;23;20208;-74
2023/06/04 06:37:44;;;;;;;3.33;1.67;;;;;;;18.78;39.94;100807.22;6173772;23;20212;-73
2023/06/04 06:40:12;;;;;;;4.43;1.57;;;;;;;18.81;40.21;100815.94;6175551;23;20220;-73
2023/06/04 06:42:41;;;;;;;4.80;1.63;;;;;;;18.85;39.70;100811.81;6175897;23;20180;-74
2023/06/04 06:45:10;;;;;;;3.57;1.47;;;;;;;18.84;40.19;100815.50;6175499;23;20185;-74
2023/06/04 06:47:38;;;;;;;3.17;1.60;;;;;;;18.87;40.25;100812.44;6176228;23;20196;-74
2023/06/04 06:50:07;;;;;;;3.83;1.70;;;;;;;18.86;40.17;100811.63;6175268;23;20224;-74
2023/06/04 06:52:34;;;;;;;3.03;1.50;;;;;;;18.89;40.23;100813.09;6176168;23;20185;-76
2023/06/04 06:55:02;;;;;;;5.23;2.33;;;;;;;18.92;40.18;100818.91;6175445;23;20939;-75
2023/06/04 06:57:30;;;;;;;4.77;1.53;;;;;;;18.98;40.54;100820.00;6171823;23;20579;-74
2023/06/04 06:59:59;;;;;;;4.80;1.50;;;;;;;19.00;40.48;100804.50;6176493;23;20193;-74
2023/06/04 07:02:28;;;;;;;6.67;1.63;;;;;;;19.06;40.29;100806.41;6176748;23;20263;-74
2023/06/04 07:04:56;;;;;;;4.10;1.57;;;;;;;19.13;40.14;100818.03;6176221;23;20191;-75
2023/06/04 07:07:26;;;;;;;3.73;1.67;;;;;;;19.20;39.97;100807.31;6175728;23;20291;-74
2023/06/04 07:09:54;;;;;;;11.73;1.97;;;;;;;19.28;39.79;100815.25;6175221;23;20210;-74
2023/06/04 07:12:22;;;;;;;5.60;1.47;;;;;;;19.33;40.02;100815.50;6173822;23;20196;-74
2023/06/04 07:14:49;;;;;;;6.43;1.67;;;;;;;19.38;39.85;100813.88;6175795;23;20290;-74
2023/06/04 07:17:19;;;;;;;3.87;1.63;;;;;;;19.45;39.48;100812.06;6174640;23;20184;-74
2023/06/04 07:19:46;;;;;;;4.30;1.53;;;;;;;19.54;39.40;100815.44;6176282;23;20189;-74
2023/06/04 07:22:15;;;;;;;4.87;1.90;;;;;;;19.61;39.16;100810.13;6178204;23;20576;-75
2023/06/04 07:24:43;;;;;;;4.33;1.40;;;;;;;19.68;39.11;100811.81;6178848;23;20189;-75
2023/06/04 07:27:12;;;;;;;3.30;1.50;;;;;;;19.77;39.40;100816.00;6176516;23;20239;-74
2023/06/04 07:29:40;;;;;;;6.13;1.50;;;;;;;19.85;39.40;100813.13;6175778;23;20227;-74
2023/06/04 07:32:11;;;;;;;6.13;1.63;;;;;;;19.92;39.34;100815.84;6176291;23;20193;-74
2023/06/04 07:34:40;;;;;;;6.57;1.43;;;;;;;20.00;39.09;100804.06;6174623;23;20295;-74
2023/06/04 07:37:15;;;;;;;3.03;1.63;;;;;;;20.08;38.46;100806.59;6174852;23;20260;-74
2023/06/04 07:39:43;;;;;;;6.53;1.60;;;;;;;20.15;38.59;100804.75;6178669;23;20199;-73
2023/06/04 07:42:10;;;;;;;3.73;1.50;;;;;;;20.24;38.31;100812.44;6179581;23;20958;-74
2023/06/04 07:44:38;;;;;;;2.90;1.40;;;;;;;20.32;38.36;100806.03;6181093;23;20216;-74
2023/06/04 07:47:06;;;;;;;3.40;1.60;;;;;;;20.38;38.08;100807.13;6179515;23;20181;-74
2023/06/04 07:49:34;;;;;;;4.60;1.90;;;;;;;20.43;38.14;100807.34;6182107;23;20205;-75
2023/06/04 07:52:13;;;;;;;4.57;1.50;;;;;;;20.49;38.24;100806.53;6179618;23;20238;-75
2023/06/04 07:54:41;;;;;;;3.90;1.73;;;;;;;20.54;38.05;100804.06;6177447;23;20676;-73
2023/06/04 07:57:10;;;;;;;9.50;1.50;;;;;;;20.58;38.01;100808.00;6176296;23;20185;-74
2023/06/04 07:59:37;;;;;;;3.33;1.37;;;;;;;20.67;37.82;100805.94;6175610;23;20244;-73
2023/06/04 08:02:06;;;;;;;9.37;1.80;;;;;;;20.75;38.41;100803.03;6176667;23;20180;-74
2023/06/04 08:04:34;;;;;;;5.63;1.50;;;;;;;20.86;37.79;100807.78;6175547;23;20223;-72
2023/06/04 08:07:02;;;;;;;6.63;1.63;;;;;;;20.97;37.34;100812.56;6175077;23;20287;-72
2023/06/04 08:09:31;;;;;;;4.97;1.60;;;;;;;21.02;37.30;100807.41;6177452;23;20209;-74
2023/06/04 08:11:59;;;;;;;3.70;1.90;;;;;;;21.01;37.12;100805.75;6177122;23;20192;-74
2023/06/04 08:14:27;;;;;;;4.80;1.70;;;;;;;20.97;37.08;100812.56;6176646;23;20181;-74
2023/06/04 08:16:57;;;;;;;3.67;1.60;;;;;;;20.94;36.91;100815.69;6175226;23;20185;-75
2023/06/04 08:19:25;;;;;;;3.83;1.67;;;;;;;20.94;36.96;100804.91;6176542;23;20184;-75
2023/06/04 08:21:53;;;;;;;5.30;1.60;;;;;;;20.94;37.15;100803.03;6176381;23;20295;-76
2023/06/04 08:24:21;;;;;;;7.00;1.97;;;;;;;20.96;37.56;100809.06;6177558;23;20184;-73
2023/06/04 08:26:51;;;;;;;4.10;1.63;;;;;;;21.04;37.67;100800.75;6175245;23;20260;-73
2023/06/04 08:29:19;;;;;;;3.67;1.83;;;;;;;21.17;37.25;100797.25;6174547;23;20289;-72
2023/06/04 08:31:47;;;;;;;3.13;1.63;;;;;;;21.33;37.60;100799.50;6175627;23;20768;-73
2023/06/04 08:34:16;;;;;;;10.47;1.90;;;;;;;21.46;37.12;100803.22;6174136;23;20181;-74
2023/06/04 08:36:44;;;;;;;4.67;1.73;;;;;;;21.55;36.95;100793.88;6174258;23;20184;-74
2023/06/04 08:39:11;;;;;;;2.97;1.60;;;;;;;21.62;36.63;100810.88;6176454;23;20212;-74
2023/06/04 08:41:44;;;;;;;5.60;1.70;;;;;;;21.64;36.71;100806.06;6176831;23;20239;-74
2023/06/04 08:44:16;;;;;;;3.67;1.70;;;;;;;21.60;36.16;100808.38;6175053;23;20189;-74
2023/06/04 08:46:45;;;;;;;4.07;1.67;;;;;;;21.73;36.40;100812.88;6175728;23;20185;-75
2023/06/04 08:49:14;;;;;;;4.37;1.60;;;;;;;21.92;35.85;100814.69;6175495;23;20204;-74
2023/06/04 08:51:45;;;;;;;5.70;1.67;;;;;;;22.10;36.70;100814.84;6174854;23;20259;-74
2023/06/04 08:54:12;;;;;;;4.03;1.23;;;;;;;22.28;35.59;100816.00;6178212;23;20227;-73
2023/06/04 08:56:40;;;;;;;3.07;1.37;;;;;;;22.42;35.14;100823.00;6175438;23;20189;-74
2023/06/04 08:59:10;;;;;;;2.55;1.20;;;;;;;22.59;35.55;100812.50;6176073;23;20192;-74
2023/06/04 09:01:41;;;;;;;4.70;1.40;;;;;;;22.74;35.67;100810.31;6177525;23;20220;-74
2023/06/04 09:04:11;;;;;;;5.47;1.40;;;;;;;22.92;35.13;100817.69;6178609;23;20212;-77
2023/06/04 09:06:41;;;;;;;2.83;1.50;;;;;;;23.05;35.32;100817.56;6178128;23;20191;-74
2023/06/04 09:09:12;;;;;;;5.40;1.40;;;;;;;23.14;34.23;100821.63;6178543;23;20243;-74
2023/06/04 09:11:49;;;;;;;5.82;1.92;;;;;;;23.23;33.93;100823.84;6182166;23;20243;-74
2023/06/04 09:14:17;;;;;;;8.43;1.50;;;;;;;23.27;34.10;100816.94;6182648;23;20181;-75
2023/06/04 09:16:48;;;;;;;4.93;1.52;;;;;;;23.36;34.24;100825.59;6179935;23;20300;-73
2023/06/04 09:19:16;;;;;;;4.05;1.58;;;;;;;23.26;32.84;100819.88;6178392;23;20177;-74
2023/06/04 09:21:52;;;;;;;4.60;1.67;;;;;;;23.29;33.48;100814.03;6176797;23;20213;-73
2023/06/04 09:24:20;;;;;;;4.22;1.33;;;;;;;23.36;33.48;100813.97;6177777;23;20185;-74
2023/06/04 09:26:49;;;;;;;2.67;1.45;;;;;;;23.45;33.87;100815.31;6177023;23;20189;-67
2023/06/04 09:29:18;;;;;;;4.25;1.67;;;;;;;23.47;34.22;100811.34;6175451;23;20269;-66
2023/06/04 09:31:47;;;;;;;2.00;1.10;;;;;;;23.58;33.97;100807.06;6176142;23;20181;-65
2023/06/04 09:34:15;;;;;;;2.75;1.50;;;;;;;23.72;33.24;100818.59;6176434;23;20181;-65
2023/06/04 09:36:43;;;;;;;4.05;1.48;;;;;;;23.81;33.91;100806.41;6175065;23;20189;-66
2023/06/04 09:39:19;;;;;;;8.55;1.63;;;;;;;23.93;34.35;100810.00;6176101;23;20287;-65
2023/06/04 09:41:58;;;;;;;8.10;1.52;;;;;;;24.06;33.21;100803.59;6175489;23;20188;-65
2023/06/04 09:44:26;;;;;;;3.17;1.52;;;;;;;24.10;32.60;100802.91;6176149;23;20207;-65
2023/06/04 09:46:58;;;;;;;5.22;1.88;;;;;;;24.04;33.06;100800.28;6175177;23;20181;-65
2023/06/04 09:49:26;;;;;;;6.35;1.30;;;;;;;24.08;33.42;100801.50;6173947;23;20666;-65
2023/06/04 09:51:54;;;;;;;5.43;1.60;;;;;;;24.18;33.74;100808.03;6175608;23;20208;-65
2023/06/04 09:54:22;;;;;;;4.53;1.60;;;;;;;24.30;34.30;100799.94;6177284;23;20223;-65
2023/06/04 09:56:50;;;;;;;5.63;1.60;;;;;;;24.33;33.91;100800.34;6174234;23;20667;-65
2023/06/04 09:59:18;;;;;;;3.10;1.65;;;;;;;24.51;33.05;100802.16;6175433;23;20223;-64
2023/06/04 10:01:46;;;;;;;3.78;1.40;;;;;;;24.58;33.72;100802.03;6175897;23;20231;-64
2023/06/04 10:04:16;;;;;;;5.93;2.03;;;;;;;24.72;34.05;100793.47;6175749;23;20208;-64
2023/06/04 10:06:44;;;;;;;3.85;1.10;;;;;;;24.74;33.60;100790.53;6174856;23;20184;-64
2023/06/04 10:09:14;;;;;;;4.47;1.45;;;;;;;24.69;33.02;100793.13;6175007;23;20952;-66
2023/06/04 10:11:47;;;;;;;5.20;1.63;;;;;;;24.74;33.36;100796.78;6175688;23;20246;-64
2023/06/04 10:14:22;;;;;;;6.43;1.67;;;;;;;24.71;33.04;100789.13;6176190;23;20219;-65
2023/06/04 10:16:52;;;;;;;3.65;1.52;;;;;;;24.80;32.66;100795.03;6175311;23;20625;-66
2023/06/04 10:19:21;;;;;;;8.30;1.83;;;;;;;25.02;32.66;100788.00;6174362;23;20187;-64
2023/06/04 10:21:49;;;;;;;4.70;1.63;;;;;;;25.13;32.43;100789.06;6175683;23;20767;-64
2023/06/04 10:24:17;;;;;;;7.00;1.70;;;;;;;25.20;31.94;100788.94;6174370;23;20734;-66
2023/06/04 10:26:45;;;;;;;3.67;1.60;;;;;;;25.28;31.28;100794.00;6173068;23;20625;-66
2023/06/04 10:29:15;;;;;;;7.38;1.50;;;;;;;25.35;30.73;100784.69;6173507;23;20252;-67
2023/06/04 10:31:44;;;;;;;5.55;1.58;;;;;;;25.29;30.66;100787.53;6173695;23;20205;-65
2023/06/04 10:34:14;;;;;;;4.75;1.70;;;;;;;25.21;30.92;100782.47;6175979;23;20268;-65
2023/06/04 10:36:46;;;;;;;4.97;1.77;;;;;;;25.11;30.80;100792.00;6173594;23;20580;-65
2023/06/04 10:39:14;;;;;;;5.30;1.40;;;;;;;24.96;31.34;100783.53;6173455;23;20227;-66
2023/06/04 10:41:42;;;;;;;5.63;1.58;;;;;;;24.95;31.17;100784.56;6175232;23;20560;-66
2023/06/04 10:44:12;;;;;;;3.55;1.35;;;;;;;24.98;31.97;100781.38;6174422;23;20617;-65
2023/06/04 10:46:41;;;;;;;6.88;1.40;;;;;;;25.05;30.77;100775.84;6173641;23;20259;-67
2023/06/04 10:49:10;;;;;;;12.88;1.58;;;;;;;25.21;30.76;100771.59;6175373;23;20216;-66
2023/06/04 10:51:38;;;;;;;2.90;1.45;;;;;;;25.39;30.14;100769.56;6174694;23;20236;-66
2023/06/04 10:54:08;;;;;;;3.80;1.80;;;;;;;25.54;30.95;100779.94;6176877;23;20189;-65
2023/06/04 10:56:37;;;;;;;9.35;1.50;;;;;;;25.63;30.38;100780.41;6177001;23;20181;-65
2023/06/04 10:59:16;;;;;;;4.85;1.27;;;;;;;25.74;29.83;100787.72;6177995;23;20691;-64
2023/06/04 11:01:48;;;;;;;3.38;1.40;;;;;;;25.66;29.04;100779.94;6180224;23;20579;-64
2023/06/04 11:04:21;;;;;;;2.47;1.27;;;;;;;25.93;29.54;100782.94;6178224;23;20255;-63
2023/06/04 11:07:01;;;;;;;5.70;1.30;;;;;;;26.11;29.55;100782.75;6172208;23;20188;-65
2023/06/04 11:09:31;;;;;;;5.93;1.70;;;;;;;26.32;28.30;100779.38;6174349;23;20230;-65
2023/06/04 11:12:01;;;;;;;7.25;1.65;;;;;;;26.16;27.13;100770.06;6173603;23;20286;-64
2023/06/04 11:14:29;;;;;;;7.35;1.50;;;;;;;26.39;27.77;100777.31;6172563;23;20188;-65
2023/06/04 11:16:57;;;;;;;2.92;1.45;;;;;;;26.51;28.41;100780.81;6174728;23;20180;-64
2023/06/04 11:19:35;;;;;;;8.18;1.38;;;;;;;26.38;27.28;100772.97;6175327;23;20185;-64
2023/06/04 11:22:03;;;;;;;4.80;1.70;;;;;;;26.54;27.55;100774.88;6174280;23;20877;-65
2023/06/04 11:24:33;;;;;;;3.03;1.40;;;;;;;26.70;27.72;100767.78;6174010;23;20649;-63
2023/06/04 11:27:02;;;;;;;7.10;1.60;;;;;;;26.88;27.72;100774.88;6173528;23;20891;-64
2023/06/04 11:29:44;;;;;;;4.38;1.10;;;;;;;26.78;33.16;100770.09;6175946;23;20223;-65
2023/06/04 11:32:22;;;;;;;2.55;1.35;;;;;;;26.56;30.12;100771.94;6175125;23;20219;-65